Time;durP1;ratioP1;P1;durP2;ratioP2;P2;SDS_P1;SDS_P2;PMS_P1;PMS_P2;Temp;Humidity;BMP_temperature;BMP_pressure;BME280_temperature;BME280_humidity;BME280_pressure;Samples;Min_cycle;Max_cycle;Signal;HPM_P1;HPM_P2
2022/11/05 00:09:41;;;;;;;9.90;7.20;;;;;;;;;;5022527;28;20047;-69
2022/11/05 00:17:51;;;;;;;10.32;6.45;;;;;;;;;;5021626;28;20091;-69
2022/11/05 00:20:16;;;;;;;6.63;5.80;;;;;;;;;;5022048;28;20482;-70
2022/11/05 00:25:28;;;;;;;8.50;6.63;;;;;;;;;;5021810;28;20048;-70
2022/11/05 00:28:00;;;;;;;11.32;6.38;;;;;;;;;;5024579;28;20053;-69
2022/11/05 00:30:27;;;;;;;8.40;6.47;;;;;;;;;;5020140;28;20049;-69
2022/11/05 00:32:52;;;;;;;6.75;5.70;;;;;;;;;;5020466;28;20049;-69
2022/11/05 00:35:20;;;;;;;6.18;5.50;;;;;;;;;;5022014;28;20098;-69
2022/11/05 00:37:46;;;;;;;8.25;6.57;;;;;;;;;;5019776;28;20041;-70
2022/11/05 00:40:13;;;;;;;7.70;5.95;;;;;;;;;;5023177;28;20045;-69
2022/11/05 00:45:28;;;;;;;7.03;5.90;;;;;;;;;;5021313;28;20041;-68
2022/11/05 00:50:37;;;;;;;9.70;5.50;;;;;;;;;;5021358;28;20042;-69
2022/11/05 00:53:03;;;;;;;5.97;5.38;;;;;;;;;;5020307;28;20107;-69
2022/11/05 00:55:41;;;;;;;6.35;5.13;;;;;;;;;;5021381;28;20081;-69
2022/11/05 00:58:17;;;;;;;5.95;5.25;;;;;;;;;;5020201;28;20053;-69
2022/11/05 01:00:54;;;;;;;5.90;5.30;;;;;;;;;;5020824;28;20045;-69
2022/11/05 01:03:23;;;;;;;5.03;4.43;;;;;;;;;;5021590;28;20079;-68
2022/11/05 01:05:52;;;;;;;7.68;4.38;;;;;;;;;;5020420;28;20049;-68
2022/11/05 01:08:20;;;;;;;5.60;4.28;;;;;;;;;;5019019;28;21059;-68
2022/11/05 01:10:49;;;;;;;5.75;4.05;;;;;;;;;;5019092;28;20168;-68
2022/11/05 01:13:17;;;;;;;5.53;3.95;;;;;;;;;;5019771;28;20096;-68
2022/11/05 01:15:43;;;;;;;5.32;3.72;;;;;;;;;;5018944;28;20049;-68
2022/11/05 01:18:09;;;;;;;5.13;4.13;;;;;;;;;;5019421;28;20049;-68
2022/11/05 01:20:34;;;;;;;5.18;3.58;;;;;;;;;;5017935;28;20580;-69
2022/11/05 01:23:00;;;;;;;4.90;3.50;;;;;;;;;;5020599;28;20045;-68
2022/11/05 01:25:25;;;;;;;7.13;3.50;;;;;;;;;;5020908;28;20082;-69
2022/11/05 01:27:51;;;;;;;4.78;3.20;;;;;;;;;;5020516;28;20059;-68
2022/11/05 01:30:17;;;;;;;4.10;2.85;;;;;;;;;;5019548;28;20049;-68
2022/11/05 01:32:42;;;;;;;4.25;3.22;;;;;;;;;;5018894;28;20128;-68
2022/11/05 01:35:11;;;;;;;3.00;2.72;;;;;;;;;;5018899;28;20069;-68
2022/11/05 01:37:38;;;;;;;3.35;2.47;;;;;;;;;;5018964;28;20045;-68
2022/11/05 01:40:05;;;;;;;4.18;2.55;;;;;;;;;;5018427;28;20498;-68
2022/11/05 01:42:31;;;;;;;3.28;2.42;;;;;;;;;;5018358;28;20061;-68
2022/11/05 01:45:16;;;;;;;4.05;2.70;;;;;;;;;;5021080;28;20131;-68
2022/11/05 01:47:47;;;;;;;5.97;2.30;;;;;;;;;;5020645;28;20504;-69
2022/11/05 01:50:24;;;;;;;3.35;2.28;;;;;;;;;;5020306;28;20072;-69
2022/11/05 01:52:53;;;;;;;5.32;1.85;;;;;;;;;;5019620;28;20927;-68
2022/11/05 01:55:24;;;;;;;2.38;2.15;;;;;;;;;;5020600;28;20060;-68
2022/11/05 01:57:53;;;;;;;4.03;2.00;;;;;;;;;;5020175;28;20302;-69
2022/11/05 02:00:19;;;;;;;3.50;2.03;;;;;;;;;;5020688;28;20099;-68
2022/11/05 02:02:44;;;;;;;2.00;1.80;;;;;;;;;;5015097;28;20057;-68
2022/11/05 02:05:12;;;;;;;2.80;1.85;;;;;;;;;;5019128;28;20049;-68
2022/11/05 02:07:39;;;;;;;2.63;2.20;;;;;;;;;;5020439;28;20104;-67
2022/11/05 02:10:10;;;;;;;4.55;2.33;;;;;;;;;;5035181;28;20041;-67
2022/11/05 02:12:38;;;;;;;3.13;2.17;;;;;;;;;;5021897;28;20049;-68
2022/11/05 02:15:05;;;;;;;2.40;2.20;;;;;;;;;;5023766;28;20501;-68
2022/11/05 02:17:39;;;;;;;3.38;2.58;;;;;;;;;;5024164;28;20060;-67
2022/11/05 02:20:34;;;;;;;2.92;2.55;;;;;;;;;;5024141;28;20055;-68
2022/11/05 02:23:33;;;;;;;5.32;2.65;;;;;;;;;;5024183;28;20099;-67
2022/11/05 02:26:34;;;;;;;4.00;3.05;;;;;;;;;;5022566;28;20045;-68
2022/11/05 02:29:22;;;;;;;3.45;2.80;;;;;;;;;;4991330;28;20449;-68
2022/11/05 02:31:47;;;;;;;3.53;2.28;;;;;;;;;;5023244;28;20044;-68
2022/11/05 02:34:50;;;;;;;2.28;2.00;;;;;;;;;;5024793;28;20053;-68
2022/11/05 02:37:30;;;;;;;2.65;1.70;;;;;;;;;;5023179;28;20394;-67
2022/11/05 02:40:18;;;;;;;2.75;2.00;;;;;;;;;;5023429;28;20053;-67
2022/11/05 02:42:43;;;;;;;5.78;2.10;;;;;;;;;;5023715;28;20053;-67
2022/11/05 02:45:15;;;;;;;2.38;1.77;;;;;;;;;;5024170;28;20414;-67
2022/11/05 02:47:43;;;;;;;2.25;1.70;;;;;;;;;;5023283;28;20371;-67
2022/11/05 02:50:17;;;;;;;2.00;1.80;;;;;;;;;;5023368;28;20079;-67
2022/11/05 02:53:00;;;;;;;3.58;2.20;;;;;;;;;;5023527;28;20049;-67
2022/11/05 02:55:33;;;;;;;2.28;1.95;;;;;;;;;;5024105;28;20111;-68
2022/11/05 02:58:01;;;;;;;1.80;1.70;;;;;;;;;;5023093;28;20054;-67
2022/11/05 03:00:49;;;;;;;2.72;1.92;;;;;;;;;;5023022;28;20386;-69
2022/11/05 03:03:21;;;;;;;3.10;1.92;;;;;;;;;;5023815;28;20111;-68
2022/11/05 03:06:28;;;;;;;2.15;1.98;;;;;;;;;;5022944;28;20514;-67
2022/11/05 03:09:12;;;;;;;2.25;1.88;;;;;;;;;;5023023;28;20448;-67
2022/11/05 03:12:20;;;;;;;2.55;2.13;;;;;;;;;;5023172;28;20073;-67
2022/11/05 03:15:10;;;;;;;2.05;1.85;;;;;;;;;;4989748;28;20045;-68
2022/11/05 03:17:57;;;;;;;2.13;1.92;;;;;;;;;;5023255;28;20576;-68
2022/11/05 03:20:41;;;;;;;3.97;2.55;;;;;;;;;;5016513;28;20081;-68
2022/11/05 03:23:28;;;;;;;2.75;1.90;;;;;;;;;;5023084;28;20064;-68
2022/11/05 03:26:16;;;;;;;2.63;1.83;;;;;;;;;;5022571;28;20099;-68
2022/11/05 03:28:47;;;;;;;2.50;2.15;;;;;;;;;;5023412;28;20049;-68
2022/11/05 03:31:15;;;;;;;4.72;2.30;;;;;;;;;;5022244;28;20049;-68
2022/11/05 03:33:42;;;;;;;2.38;1.90;;;;;;;;;;5023197;28;20045;-68
2022/11/05 03:36:48;;;;;;;2.95;2.20;;;;;;;;;;5022398;28;20049;-69
2022/11/05 03:39:20;;;;;;;1.95;1.73;;;;;;;;;;5019905;28;20127;-69
2022/11/05 03:41:49;;;;;;;2.13;1.80;;;;;;;;;;5021917;28;20045;-69
2022/11/05 03:44:20;;;;;;;2.50;2.30;;;;;;;;;;5021138;28;20053;-69
2022/11/05 03:46:48;;;;;;;2.40;2.20;;;;;;;;;;5019606;28;20053;-68
2022/11/05 03:49:24;;;;;;;7.22;2.22;;;;;;;;;;5021129;28;20052;-69
2022/11/05 03:52:10;;;;;;;1.83;1.73;;;;;;;;;;5020373;28;20041;-69
2022/11/05 03:54:36;;;;;;;1.80;1.70;;;;;;;;;;5020626;28;20092;-69
2022/11/05 03:57:13;;;;;;;2.05;1.80;;;;;;;;;;5022730;28;20041;-68
2022/11/05 03:59:42;;;;;;;2.30;2.10;;;;;;;;;;5023111;28;20187;-69
2022/11/05 04:02:09;;;;;;;2.53;2.17;;;;;;;;;;5021190;28;20095;-68
2022/11/05 04:04:35;;;;;;;2.92;2.28;;;;;;;;;;5021068;28;21080;-69
2022/11/05 04:15:12;;;;;;;6.80;2.80;;;;;;;;;;5020976;28;20049;-68
2022/11/05 04:17:37;;;;;;;5.53;2.50;;;;;;;;;;5022353;28;20098;-66
2022/11/05 04:25:31;;;;;;;7.88;2.38;;;;;;;;;;5026066;28;20080;-67
2022/11/05 04:27:59;;;;;;;3.88;2.20;;;;;;;;;;5027281;28;20072;-66
2022/11/05 04:30:25;;;;;;;4.13;2.38;;;;;;;;;;5028837;28;20053;-67
2022/11/05 04:32:57;;;;;;;3.63;2.65;;;;;;;;;;5025362;28;20045;-67
2022/11/05 04:35:23;;;;;;;3.88;2.58;;;;;;;;;;5020927;28;20053;-66
2022/11/05 04:37:49;;;;;;;2.67;2.05;;;;;;;;;;5020303;28;20453;-66
2022/11/05 04:40:14;;;;;;;2.67;2.05;;;;;;;;;;5019671;28;20054;-67
2022/11/05 04:42:40;;;;;;;2.70;2.45;;;;;;;;;;5021136;28;20080;-66
2022/11/05 04:45:05;;;;;;;2.38;1.95;;;;;;;;;;5019978;28;20045;-67
2022/11/05 04:47:31;;;;;;;5.45;1.90;;;;;;;;;;5021385;28;20049;-67
2022/11/05 04:49:56;;;;;;;2.40;2.20;;;;;;;;;;5020178;28;20505;-67
2022/11/05 04:52:21;;;;;;;2.38;1.85;;;;;;;;;;5020977;28;20111;-67
2022/11/05 04:54:47;;;;;;;3.80;1.98;;;;;;;;;;5021626;28;20397;-68
2022/11/05 04:57:12;;;;;;;3.25;2.50;;;;;;;;;;5021461;28;20075;-67
2022/11/05 04:59:38;;;;;;;4.53;2.40;;;;;;;;;;5020532;28;20049;-67
2022/11/05 05:02:03;;;;;;;4.80;2.13;;;;;;;;;;5020450;28;20103;-67
2022/11/05 05:04:29;;;;;;;5.53;2.30;;;;;;;;;;5021321;28;20053;-67
2022/11/05 05:06:54;;;;;;;3.85;2.22;;;;;;;;;;5021151;28;20092;-67
2022/11/05 05:09:19;;;;;;;3.92;2.35;;;;;;;;;;5021632;28;20119;-67
2022/11/05 05:11:45;;;;;;;4.93;2.25;;;;;;;;;;5019659;28;20136;-66
2022/11/05 05:14:10;;;;;;;2.70;2.47;;;;;;;;;;5021636;28;20041;-68
2022/11/05 05:16:36;;;;;;;6.10;2.67;;;;;;;;;;5020944;28;20049;-66
2022/11/05 05:19:01;;;;;;;4.07;2.33;;;;;;;;;;5021309;28;20077;-67
2022/11/05 05:21:39;;;;;;;1.95;1.70;;;;;;;;;;5019692;28;20853;-67
2022/11/05 05:24:10;;;;;;;2.30;2.10;;;;;;;;;;5020392;28;20057;-66
2022/11/05 05:26:38;;;;;;;2.33;1.98;;;;;;;;;;5020744;28;20049;-66
2022/11/05 05:29:05;;;;;;;2.20;2.00;;;;;;;;;;5021387;28;20982;-67
2022/11/05 05:31:31;;;;;;;5.65;2.25;;;;;;;;;;5020692;28;20073;-67
2022/11/05 05:33:56;;;;;;;2.65;2.03;;;;;;;;;;5019449;28;20080;-66
2022/11/05 05:36:22;;;;;;;4.55;2.40;;;;;;;;;;5021234;28;20522;-67
2022/11/05 05:38:48;;;;;;;3.67;2.47;;;;;;;;;;5020614;28;20100;-67
2022/11/05 05:41:14;;;;;;;3.35;1.90;;;;;;;;;;5020686;28;20716;-66
2022/11/05 05:43:39;;;;;;;2.00;1.80;;;;;;;;;;5019943;28;20049;-68
2022/11/05 05:46:08;;;;;;;1.65;1.55;;;;;;;;;;5018634;28;20041;-70
2022/11/05 05:48:33;;;;;;;3.63;1.70;;;;;;;;;;5019543;28;20494;-69
2022/11/05 05:51:00;;;;;;;3.67;2.03;;;;;;;;;;5019643;28;20060;-69
2022/11/05 05:53:26;;;;;;;6.13;1.67;;;;;;;;;;5020439;28;20064;-69
2022/11/05 05:55:53;;;;;;;2.20;2.00;;;;;;;;;;5018635;28;20505;-69
2022/11/05 05:58:19;;;;;;;1.77;1.65;;;;;;;;;;5020019;28;20780;-69
2022/11/05 06:00:45;;;;;;;3.78;1.98;;;;;;;;;;5019679;28;20056;-69
2022/11/05 06:03:10;;;;;;;3.45;1.95;;;;;;;;;;5019596;28;20142;-69
2022/11/05 06:05:36;;;;;;;3.65;1.92;;;;;;;;;;5019323;28;20041;-69
2022/11/05 06:08:01;;;;;;;6.10;1.88;;;;;;;;;;5019015;28;20120;-69
2022/11/05 06:10:27;;;;;;;2.15;1.88;;;;;;;;;;5019829;28;20041;-70
2022/11/05 06:12:52;;;;;;;2.90;2.20;;;;;;;;;;5014176;28;20094;-69
2022/11/05 06:15:17;;;;;;;2.13;1.92;;;;;;;;;;5017688;28;20065;-70
2022/11/05 06:17:43;;;;;;;2.35;2.03;;;;;;;;;;5015591;28;20053;-70
2022/11/05 06:20:10;;;;;;;2.30;2.10;;;;;;;;;;5016236;28;20060;-69
2022/11/05 06:22:36;;;;;;;2.60;2.00;;;;;;;;;;5015413;28;20122;-69
2022/11/05 06:25:01;;;;;;;2.13;1.92;;;;;;;;;;5017921;28;20061;-69
2022/11/05 06:27:30;;;;;;;2.08;1.90;;;;;;;;;;5016790;28;20106;-70
2022/11/05 06:29:55;;;;;;;2.92;2.05;;;;;;;;;;5016205;28;20045;-69
2022/11/05 06:32:21;;;;;;;2.53;1.88;;;;;;;;;;5017637;28;20123;-69
2022/11/05 06:34:46;;;;;;;4.32;2.00;;;;;;;;;;5016946;28;20049;-69
2022/11/05 06:37:12;;;;;;;4.68;2.40;;;;;;;;;;5018073;28;20057;-69
2022/11/05 06:39:43;;;;;;;2.20;2.00;;;;;;;;;;5015159;28;20050;-70
2022/11/05 06:42:08;;;;;;;2.40;2.20;;;;;;;;;;5016020;28;20045;-68
2022/11/05 06:44:33;;;;;;;5.60;2.20;;;;;;;;;;5015626;28;20288;-67
2022/11/05 06:46:59;;;;;;;4.53;2.10;;;;;;;;;;5016113;28;20064;-69
2022/11/05 06:49:24;;;;;;;2.60;2.10;;;;;;;;;;5015268;28;20053;-68
2022/11/05 06:51:51;;;;;;;4.88;2.35;;;;;;;;;;5014550;28;20130;-69
2022/11/05 06:54:16;;;;;;;2.88;1.88;;;;;;;;;;5015815;28;20057;-68
2022/11/05 06:56:42;;;;;;;5.30;2.13;;;;;;;;;;5015248;28;20049;-68
2022/11/05 06:59:07;;;;;;;2.75;1.95;;;;;;;;;;5020050;28;20041;-69
2022/11/05 07:01:33;;;;;;;2.30;1.83;;;;;;;;;;5021084;28;20422;-69
2022/11/05 07:03:59;;;;;;;2.30;2.10;;;;;;;;;;5021767;28;20136;-69
2022/11/05 07:06:25;;;;;;;4.50;2.40;;;;;;;;;;5022106;28;20528;-69
2022/11/05 07:08:51;;;;;;;2.25;2.00;;;;;;;;;;5022311;28;20068;-69
2022/11/05 07:11:16;;;;;;;4.72;2.38;;;;;;;;;;5021927;28;20049;-69
2022/11/05 07:13:42;;;;;;;2.67;2.17;;;;;;;;;;5021012;28;20053;-69
2022/11/05 07:16:08;;;;;;;7.90;2.03;;;;;;;;;;5018872;28;20096;-69
2022/11/05 07:18:33;;;;;;;2.70;2.10;;;;;;;;;;5022430;28;20069;-69
2022/11/05 07:20:59;;;;;;;2.03;1.83;;;;;;;;;;5022493;28;20422;-69
2022/11/05 07:23:25;;;;;;;3.58;1.85;;;;;;;;;;5021616;28;20058;-69
2022/11/05 07:25:50;;;;;;;1.90;1.70;;;;;;;;;;5021873;28;20826;-70
2022/11/05 07:28:16;;;;;;;2.00;1.80;;;;;;;;;;5022918;28;20108;-69
2022/11/05 07:30:41;;;;;;;2.80;1.67;;;;;;;;;;5022250;28;20045;-69
2022/11/05 07:33:06;;;;;;;1.85;1.55;;;;;;;;;;5021947;28;20065;-69
2022/11/05 07:35:32;;;;;;;2.75;1.70;;;;;;;;;;5022188;28;20403;-69
2022/11/05 07:37:57;;;;;;;6.72;1.95;;;;;;;;;;5021800;28;20051;-69
2022/11/05 07:40:26;;;;;;;2.80;1.83;;;;;;;;;;5022638;28;20048;-69
2022/11/05 07:42:57;;;;;;;2.88;1.83;;;;;;;;;;5021687;28;20068;-69
2022/11/05 07:45:23;;;;;;;1.70;1.60;;;;;;;;;;5021408;28;20053;-69
2022/11/05 07:47:51;;;;;;;1.92;1.83;;;;;;;;;;5021831;28;20490;-69
2022/11/05 07:50:18;;;;;;;2.10;2.00;;;;;;;;;;5022710;28;20049;-69
2022/11/05 07:52:44;;;;;;;5.40;2.33;;;;;;;;;;5018769;28;20045;-69
2022/11/05 07:55:12;;;;;;;2.78;2.13;;;;;;;;;;5020879;28;20052;-69
2022/11/05 07:57:48;;;;;;;3.63;2.00;;;;;;;;;;5020719;28;20116;-69
2022/11/05 08:00:20;;;;;;;2.55;2.35;;;;;;;;;;5020425;28;20437;-69
2022/11/05 08:03:12;;;;;;;3.10;2.25;;;;;;;;;;5020405;28;20461;-69
2022/11/05 08:05:42;;;;;;;2.67;2.47;;;;;;;;;;5020456;28;20057;-69
2022/11/05 08:08:08;;;;;;;2.08;1.98;;;;;;;;;;5020236;28;20140;-69
2022/11/05 08:10:35;;;;;;;2.45;2.13;;;;;;;;;;5019913;28;20133;-69
2022/11/05 08:13:00;;;;;;;3.53;2.42;;;;;;;;;;5020799;28;20562;-69
2022/11/05 08:15:26;;;;;;;2.72;2.47;;;;;;;;;;5021246;28;20046;-69
2022/11/05 08:18:03;;;;;;;2.58;2.33;;;;;;;;;;5016445;28;20049;-69
2022/11/05 08:20:30;;;;;;;2.17;2.08;;;;;;;;;;5021427;28;20451;-69
2022/11/05 08:22:56;;;;;;;3.88;2.60;;;;;;;;;;5019732;28;20057;-69
2022/11/05 08:25:21;;;;;;;2.50;2.30;;;;;;;;;;5020929;28;20046;-69
2022/11/05 08:27:56;;;;;;;2.70;2.50;;;;;;;;;;5019721;28;20049;-70
2022/11/05 08:30:22;;;;;;;2.97;2.47;;;;;;;;;;5020155;28;20115;-69
2022/11/05 08:32:47;;;;;;;3.53;3.00;;;;;;;;;;5019618;28;20046;-69
2022/11/05 08:35:12;;;;;;;3.00;2.70;;;;;;;;;;5020775;28;20049;-69
2022/11/05 08:37:38;;;;;;;3.00;2.63;;;;;;;;;;5020278;28;20045;-69
2022/11/05 08:40:04;;;;;;;4.45;2.60;;;;;;;;;;5019203;28;20410;-69
2022/11/05 08:42:29;;;;;;;2.53;2.25;;;;;;;;;;5020086;28;20136;-69
2022/11/05 08:44:55;;;;;;;3.45;2.13;;;;;;;;;;5020105;28;20132;-69
2022/11/05 08:47:21;;;;;;;2.97;2.15;;;;;;;;;;5020309;28;20083;-69
2022/11/05 08:49:46;;;;;;;3.47;1.98;;;;;;;;;;5018359;28;20049;-70
2022/11/05 08:52:11;;;;;;;2.92;2.10;;;;;;;;;;5019185;28;20053;-69
2022/11/05 08:54:37;;;;;;;2.03;1.83;;;;;;;;;;5019826;28;20052;-69
2022/11/05 08:57:03;;;;;;;3.90;2.00;;;;;;;;;;5019934;28;20053;-69
2022/11/05 08:59:30;;;;;;;2.05;1.80;;;;;;;;;;5021184;28;20049;-69
2022/11/05 09:01:55;;;;;;;2.55;2.20;;;;;;;;;;5018930;28;20048;-69
2022/11/05 09:04:21;;;;;;;2.67;2.00;;;;;;;;;;5021473;28;20049;-69
2022/11/05 09:06:47;;;;;;;2.28;2.08;;;;;;;;;;5021039;28;20078;-69
2022/11/05 09:09:12;;;;;;;4.35;2.20;;;;;;;;;;5019526;28;20056;-69
2022/11/05 09:11:38;;;;;;;2.58;1.92;;;;;;;;;;5020762;28;20042;-69
2022/11/05 09:14:03;;;;;;;2.30;2.10;;;;;;;;;;5020069;28;20045;-69
2022/11/05 09:16:31;;;;;;;2.30;2.10;;;;;;;;;;5019206;28;20053;-69
2022/11/05 09:18:56;;;;;;;3.10;2.05;;;;;;;;;;5019517;28;20140;-69
2022/11/05 09:21:22;;;;;;;2.60;2.08;;;;;;;;;;5019667;28;20137;-69
2022/11/05 09:23:47;;;;;;;3.60;2.03;;;;;;;;;;5017829;28;20169;-69
2022/11/05 09:26:13;;;;;;;3.05;2.33;;;;;;;;;;5019273;28;20720;-69
2022/11/05 09:28:39;;;;;;;2.97;2.50;;;;;;;;;;5018716;28;20096;-68
2022/11/05 09:31:09;;;;;;;2.30;2.03;;;;;;;;;;5019904;28;20045;-70
2022/11/05 09:33:37;;;;;;;2.33;2.10;;;;;;;;;;5018843;28;20037;-69
2022/11/05 09:36:03;;;;;;;2.50;2.30;;;;;;;;;;5018018;28;20041;-70
2022/11/05 09:38:30;;;;;;;2.88;2.65;;;;;;;;;;5019364;28;20778;-70
2022/11/05 09:41:03;;;;;;;2.33;2.13;;;;;;;;;;5018869;28;20115;-70
2022/11/05 09:43:40;;;;;;;2.88;2.25;;;;;;;;;;5019115;28;20053;-70
2022/11/05 09:46:44;;;;;;;2.65;2.28;;;;;;;;;;5017077;28;20521;-70
2022/11/05 09:49:21;;;;;;;2.38;1.90;;;;;;;;;;5001485;28;20143;-70
2022/11/05 09:51:47;;;;;;;2.58;2.20;;;;;;;;;;5018014;28;20033;-70
2022/11/05 09:54:14;;;;;;;2.63;2.15;;;;;;;;;;5020309;28;20034;-70
2022/11/05 09:56:40;;;;;;;2.67;2.33;;;;;;;;;;5018894;28;21105;-70
2022/11/05 09:59:39;;;;;;;2.33;2.13;;;;;;;;;;5020265;28;20037;-70
2022/11/05 10:02:27;;;;;;;3.00;1.80;;;;;;;;;;5006871;28;20131;-70
2022/11/05 10:05:01;;;;;;;4.22;2.20;;;;;;;;;;5017308;28;20490;-69
2022/11/05 10:07:29;;;;;;;2.03;1.65;;;;;;;;;;5017206;28;20050;-69
2022/11/05 10:10:01;;;;;;;2.65;1.60;;;;;;;;;;5019219;28;20045;-69
2022/11/05 10:12:38;;;;;;;3.80;1.58;;;;;;;;;;5019962;28;20674;-69
2022/11/05 10:15:15;;;;;;;1.63;1.35;;;;;;;;;;5020270;28;20107;-69
2022/11/05 10:17:47;;;;;;;2.83;1.75;;;;;;;;;;5019580;28;21254;-70
2022/11/05 10:20:22;;;;;;;2.28;1.65;;;;;;;;;;5018850;28;20461;-69
2022/11/05 10:22:53;;;;;;;3.00;1.70;;;;;;;;;;5019309;28;20062;-70
2022/11/05 10:25:21;;;;;;;1.70;1.60;;;;;;;;;;5020381;28;20514;-69
2022/11/05 10:27:52;;;;;;;2.80;1.90;;;;;;;;;;5019366;28;20049;-71
2022/11/05 10:30:18;;;;;;;2.10;1.90;;;;;;;;;;5019678;28;20145;-69
2022/11/05 10:32:45;;;;;;;2.28;1.77;;;;;;;;;;5019991;28;20140;-69
2022/11/05 10:35:17;;;;;;;1.90;1.80;;;;;;;;;;5022269;28;20702;-70
2022/11/05 10:37:45;;;;;;;1.83;1.73;;;;;;;;;;5022789;28;20045;-68
2022/11/05 10:40:27;;;;;;;2.65;2.20;;;;;;;;;;5022861;28;20107;-68
2022/11/05 10:43:02;;;;;;;3.15;1.67;;;;;;;;;;5023220;28;20529;-70
2022/11/05 10:45:38;;;;;;;1.85;1.67;;;;;;;;;;5023920;28;20080;-68
2022/11/05 10:48:18;;;;;;;3.13;2.13;;;;;;;;;;5023543;28;20067;-69
2022/11/05 10:50:44;;;;;;;1.75;1.50;;;;;;;;;;5023801;28;20472;-69
2022/11/05 10:53:21;;;;;;;2.13;1.92;;;;;;;;;;5022851;28;20563;-69
2022/11/05 10:55:48;;;;;;;1.05;0.95;;;;;;;;;;5023654;28;20044;-68
2022/11/05 10:58:14;;;;;;;1.90;1.25;;;;;;;;;;5024697;28;20049;-68
2022/11/05 11:00:41;;;;;;;1.30;1.20;;;;;;;;;;5025338;28;20875;-68
2022/11/05 11:03:37;;;;;;;1.02;1.02;;;;;;;;;;5023554;28;20045;-68
2022/11/05 11:06:24;;;;;;;1.00;1.00;;;;;;;;;;5021470;28;21138;-68
2022/11/05 11:08:51;;;;;;;1.55;1.08;;;;;;;;;;5022826;28;20501;-68
2022/11/05 11:11:34;;;;;;;6.20;1.20;;;;;;;;;;5022591;28;20099;-68
2022/11/05 11:14:10;;;;;;;1.50;1.15;;;;;;;;;;5021166;28;20081;-68
2022/11/05 11:16:39;;;;;;;1.75;1.40;;;;;;;;;;5022493;28;20214;-68
2022/11/05 11:19:24;;;;;;;3.92;1.10;;;;;;;;;;5022791;28;20049;-68
2022/11/05 11:22:11;;;;;;;1.33;1.23;;;;;;;;;;5022259;28;20053;-69
2022/11/05 11:24:48;;;;;;;1.17;1.08;;;;;;;;;;5022047;28;20056;-68
2022/11/05 11:27:23;;;;;;;1.30;1.20;;;;;;;;;;5023554;28;20050;-68
2022/11/05 11:29:55;;;;;;;3.67;1.42;;;;;;;;;;5026990;28;20043;-69
2022/11/05 11:32:23;;;;;;;2.33;1.90;;;;;;;;;;5025779;28;20046;-68
2022/11/05 11:34:52;;;;;;;2.08;1.70;;;;;;;;;;5023226;28;20114;-69
2022/11/05 11:37:34;;;;;;;4.25;1.80;;;;;;;;;;5021886;28;20087;-68
2022/11/05 11:40:11;;;;;;;1.30;1.20;;;;;;;;;;5022521;28;20041;-68
2022/11/05 11:42:39;;;;;;;2.55;2.20;;;;;;;;;;5020380;28;20053;-68
2022/11/05 11:45:16;;;;;;;2.30;2.10;;;;;;;;;;5021484;28;20448;-68
2022/11/05 11:47:43;;;;;;;2.20;1.92;;;;;;;;;;5021689;28;20521;-68
2022/11/05 11:50:33;;;;;;;1.48;1.30;;;;;;;;;;5022287;28;20048;-68
2022/11/05 11:53:27;;;;;;;3.92;2.30;;;;;;;;;;5022588;28;20064;-68
2022/11/05 11:55:59;;;;;;;4.93;1.90;;;;;;;;;;5015424;28;20132;-68
2022/11/05 11:58:38;;;;;;;1.75;1.52;;;;;;;;;;5019320;28;20198;-68
2022/11/05 12:01:11;;;;;;;2.25;1.60;;;;;;;;;;5021619;28;20045;-69
2022/11/05 12:03:52;;;;;;;6.07;2.20;;;;;;;;;;5021391;28;20077;-69
2022/11/05 12:06:18;;;;;;;5.20;2.75;;;;;;;;;;5018540;28;20037;-69
2022/11/05 12:08:49;;;;;;;2.90;2.17;;;;;;;;;;5021134;28;20486;-69
2022/11/05 12:11:24;;;;;;;6.55;3.35;;;;;;;;;;5022127;28;20046;-68
2022/11/05 12:13:58;;;;;;;4.00;2.20;;;;;;;;;;5017741;28;20076;-69
2022/11/05 12:16:26;;;;;;;7.22;3.40;;;;;;;;;;5019225;28;20053;-69
2022/11/05 12:19:05;;;;;;;5.22;3.30;;;;;;;;;;5021802;28;20057;-69
2022/11/05 12:22:00;;;;;;;2.60;2.40;;;;;;;;;;5021122;28;20060;-69
2022/11/05 12:24:44;;;;;;;2.97;2.35;;;;;;;;;;5031262;28;20045;-69
2022/11/05 12:27:16;;;;;;;2.03;1.92;;;;;;;;;;5021599;28;20056;-69
2022/11/05 12:29:51;;;;;;;;;;;;;;;;;;5022303;28;20037;-69
2022/11/05 12:32:38;;;;;;;1.77;1.67;;;;;;;;;;5020269;28;19928;-68
2022/11/05 12:35:09;;;;;;;10.45;3.92;;;;;;;;;;5021360;28;20052;-69
2022/11/05 12:37:38;;;;;;;4.70;2.50;;;;;;;;;;5020313;28;20049;-68
2022/11/05 12:40:34;;;;;;;4.30;2.70;;;;;;;;;;5019887;28;20064;-69
2022/11/05 12:43:23;;;;;;;5.97;3.83;;;;;;;;;;5019284;28;20135;-69
2022/11/05 12:45:59;;;;;;;6.88;4.43;;;;;;;;;;5011246;28;20099;-69
2022/11/05 12:48:33;;;;;;;7.75;4.10;;;;;;;;;;5019328;28;20049;-69
2022/11/05 12:51:23;;;;;;;4.28;3.10;;;;;;;;;;5020591;28;20081;-69
2022/11/05 12:54:10;;;;;;;4.75;3.28;;;;;;;;;;5019425;28;20042;-69
2022/11/05 12:56:41;;;;;;;7.30;4.47;;;;;;;;;;5035279;28;20083;-69
2022/11/05 12:59:34;;;;;;;2.92;1.77;;;;;;;;;;5021108;28;20502;-68
2022/11/05 13:02:11;;;;;;;2.03;1.38;;;;;;;;;;5013566;28;20053;-68
2022/11/05 13:04:46;;;;;;;3.40;1.05;;;;;;;;;;5020090;28;20071;-68
2022/11/05 13:07:16;;;;;;;3.67;1.35;;;;;;;;;;5020335;28;20525;-68
2022/11/05 13:09:52;;;;;;;2.20;1.20;;;;;;;;;;5020147;28;20497;-69
2022/11/05 13:12:21;;;;;;;1.38;1.23;;;;;;;;;;5017441;28;20061;-69
2022/11/05 13:14:53;;;;;;;3.15;2.70;;;;;;;;;;5019810;28;20037;-69
2022/11/05 13:17:23;;;;;;;2.75;2.55;;;;;;;;;;5020669;28;20659;-68
2022/11/05 13:20:16;;;;;;;1.00;1.00;;;;;;;;;;5020272;28;20609;-67
2022/11/05 13:22:46;;;;;;;2.20;2.00;;;;;;;;;;5020259;28;20088;-67
2022/11/05 13:25:24;;;;;;;2.10;1.60;;;;;;;;;;5020195;28;20263;-68
2022/11/05 13:27:57;;;;;;;1.30;1.20;;;;;;;;;;5016371;28;20041;-69
2022/11/05 13:30:33;;;;;;;2.55;1.50;;;;;;;;;;5019972;28;20084;-68
2022/11/05 13:33:03;;;;;;;1.80;1.70;;;;;;;;;;5020651;28;20128;-68
2022/11/05 13:35:35;;;;;;;3.78;2.00;;;;;;;;;;5020794;28;20136;-68
2022/11/05 13:41:01;;;;;;;2.78;1.98;;;;;;;;;;5016135;28;20168;-67
2022/11/05 13:43:43;;;;;;;4.07;2.65;;;;;;;;;;5019070;28;20160;-67
2022/11/05 13:46:09;;;;;;;;;;;;;;;;;;5014796;28;20055;-68
2022/11/05 13:48:50;;;;;;;2.30;1.98;;;;;;;;;;5017854;28;19921;-66
2022/11/05 13:51:46;;;;;;;3.28;2.28;;;;;;;;;;5019187;28;20045;-68
2022/11/05 13:54:39;;;;;;;2.25;2.05;;;;;;;;;;5011967;28;20115;-68
2022/11/05 13:57:37;;;;;;;2.30;2.10;;;;;;;;;;5018526;28;20469;-66
2022/11/05 14:00:02;;;;;;;2.80;2.50;;;;;;;;;;4964701;28;21440;-66
2022/11/05 14:02:39;;;;;;;5.82;4.25;;;;;;;;;;5018790;28;20049;-67
2022/11/05 14:05:06;;;;;;;3.35;3.03;;;;;;;;;;5018685;28;20136;-68
2022/11/05 14:07:35;;;;;;;2.45;2.25;;;;;;;;;;5018336;28;20491;-67
2022/11/05 14:10:43;;;;;;;2.30;2.08;;;;;;;;;;5017593;28;20152;-69
2022/11/05 14:13:22;;;;;;;3.22;2.00;;;;;;;;;;4985729;28;20477;-68
2022/11/05 14:15:59;;;;;;;2.78;2.30;;;;;;;;;;5017533;28;20049;-67
2022/11/05 14:18:33;;;;;;;4.15;2.35;;;;;;;;;;5019742;28;20517;-70
2022/11/05 14:21:02;;;;;;;5.10;4.60;;;;;;;;;;5017411;28;20122;-68
2022/11/05 14:23:38;;;;;;;5.53;2.60;;;;;;;;;;5019048;28;20524;-68
2022/11/05 14:26:19;;;;;;;4.45;3.13;;;;;;;;;;5018099;28;20099;-68
2022/11/05 14:28:47;;;;;;;4.35;2.30;;;;;;;;;;5017648;28;20049;-68
2022/11/05 14:31:19;;;;;;;2.67;1.98;;;;;;;;;;5017573;28;20048;-67
2022/11/05 14:34:16;;;;;;;2.38;1.92;;;;;;;;;;5016992;28;20057;-67
2022/11/05 14:37:02;;;;;;;1.13;0.82;;;;;;;;;;5018829;28;20048;-67
2022/11/05 14:39:30;;;;;;;2.45;2.25;;;;;;;;;;5019878;28;20136;-68
2022/11/05 14:42:10;;;;;;;6.22;4.10;;;;;;;;;;5017249;28;20057;-66
2022/11/05 14:44:57;;;;;;;4.93;4.30;;;;;;;;;;5018058;28;20046;-68
2022/11/05 14:47:25;;;;;;;2.50;2.30;;;;;;;;;;5017055;28;20060;-68
2022/11/05 14:49:58;;;;;;;3.45;3.13;;;;;;;;;;5017613;28;20029;-68
2022/11/05 14:52:23;;;;;;;2.80;2.50;;;;;;;;;;5018091;28;20049;-68
2022/11/05 14:54:52;;;;;;;3.35;1.98;;;;;;;;;;5017261;28;20037;-68
2022/11/05 14:57:40;;;;;;;4.07;2.72;;;;;;;;;;5018060;28;20048;-68
2022/11/05 15:00:29;;;;;;;3.70;2.83;;;;;;;;;;5015063;28;20120;-68
2022/11/05 15:03:04;;;;;;;3.10;2.80;;;;;;;;;;5017123;28;20045;-68
2022/11/05 15:05:51;;;;;;;5.68;2.65;;;;;;;;;;5017773;28;20616;-68
2022/11/05 15:08:26;;;;;;;7.43;4.15;;;;;;;;;;5015579;28;20124;-69
2022/11/05 15:10:55;;;;;;;5.93;3.08;;;;;;;;;;5017920;28;20050;-69
2022/11/05 15:13:53;;;;;;;7.93;2.42;;;;;;;;;;5018008;28;20057;-69
2022/11/05 15:16:23;;;;;;;1.80;1.70;;;;;;;;;;4967494;28;20367;-68
2022/11/05 15:18:51;;;;;;;1.83;1.27;;;;;;;;;;5017842;28;20073;-68
2022/11/05 15:21:18;;;;;;;2.53;1.73;;;;;;;;;;5021980;28;20561;-68
2022/11/05 15:23:47;;;;;;;2.58;2.38;;;;;;;;;;5020471;28;20050;-68
2022/11/05 15:26:30;;;;;;;3.90;2.22;;;;;;;;;;5021016;28;20046;-68
2022/11/05 15:28:56;;;;;;;10.60;3.00;;;;;;;;;;5020685;28;20053;-69
2022/11/05 15:31:29;;;;;;;2.50;2.30;;;;;;;;;;5021911;28;20151;-68
2022/11/05 15:34:19;;;;;;;2.47;2.22;;;;;;;;;;5020430;28;20053;-69
2022/11/05 15:36:56;;;;;;;5.70;2.47;;;;;;;;;;5021177;28;20045;-69
2022/11/05 15:39:28;;;;;;;3.15;2.70;;;;;;;;;;5020493;28;20077;-69
2022/11/05 15:41:54;;;;;;;4.85;3.05;;;;;;;;;;5020931;28;20083;-68
2022/11/05 15:44:40;;;;;;;3.17;2.55;;;;;;;;;;5020550;28;20084;-68
2022/11/05 15:47:13;;;;;;;2.50;2.30;;;;;;;;;;5021576;28;20042;-68
2022/11/05 15:49:41;;;;;;;2.40;2.03;;;;;;;;;;5017875;28;20779;-68
2022/11/05 15:52:10;;;;;;;2.80;2.40;;;;;;;;;;5019512;28;20045;-68